Columbia, SC

11:44 PM EST on February 10, 2016 (GMT -0500)
Spring Valley | | Change Station
CLOSE
Current Station
Personal Weather Station
Location: Columbia, SC
Elevation: 361 ft
Nearby Weather Stations

Elev 361 ft 34.11 °N, 80.92 °W | Updated 12 seconds ago

Clear
Clear
32.9 °F
Feels Like 33 °F
N
0.0
Wind Variable Wind from WSW
Gusts 0.0 mph

Today
High -- | Low -- °F
--% Chance of Precip.
Yesterday
High -- | Low -- °F
Precip. -- in
Pressure 30.13 in
Visibility 10.0 miles
Clouds Clear
Windchill 33 °F
Dew Point 10 °F
Humidity 38%
Rainfall 0.00 in
Snow Depth Not available.
7:13 AM 6:02 PM
Waxing Crescent, 9% visible
METAR KCUB 110353Z AUTO VRB05KT 10SM CLR 01/M12 A3013 RMK AO2 SLP203 T00061117
Pressure 30.13 in
Visibility 10.0 miles
Clouds Clear
Windchill 33 °F
Dew Point 10 °F
Humidity 38%
Rainfall 0.00 in
Snow Depth Not available.
7:13 AM 6:02 PM
Waxing Crescent, 9% visible
METAR KCUB 110353Z AUTO VRB05KT 10SM CLR 01/M12 A3013 RMK AO2 SLP203 T00061117

10-Day Weather Forecast

Almanac

Astronomy

Feb. 10, 2016 Rise Set
Actual Time
Civil Twilight
Nautical Twilight
Astronomical Twilight
Moon
Length of Visible Light
Length of Day
Tomorrow will be .
, % of the Moon is Illuminated

Today's Extremes

State Highs State Lows

Community

WunderPhotos

Upload Photos

1,892,015 photos uploaded!

WunderBlog® & News

Nearby

Air Quality

  Air Quality AQ Index Pollutant
Not available.

Snow Depth

Station Depth Elevation

Earthquake Activity

City Distance Mag. Time & Date
Minimum magnitude displayed is 2.5.

Coastal Water Temperatures

Place Temperature

Stations

Nearby Weather Stations

Station Location Temp. Windchill Dew Point Humidity Wind Precip. Elev Updated Type
                   

Watches & Warnings

There are currently no watches in effect.